sensor_id;sensor_type;location;lat;lon;timestamp;P1;durP1;ratioP1;P2;durP2;ratioP2
26620;SDS011;14253;44.840;10.444;2022-12-05T00:00:34;35.95;;;22.65;;
26620;SDS011;14253;44.840;10.444;2022-12-05T00:03:03;38.25;;;23.60;;
26620;SDS011;14253;44.840;10.444;2022-12-05T00:05:30;39.03;;;23.70;;
26620;SDS011;14253;44.840;10.444;2022-12-05T00:07:56;35.88;;;21.73;;
26620;SDS011;14253;44.840;10.444;2022-12-05T00:10:22;36.35;;;22.58;;
26620;SDS011;14253;44.840;10.444;2022-12-05T00:12:48;37.22;;;23.45;;
26620;SDS011;14253;44.840;10.444;2022-12-05T00:15:13;34.10;;;21.58;;
26620;SDS011;14253;44.840;10.444;2022-12-05T00:17:39;38.47;;;23.80;;
26620;SDS011;14253;44.840;10.444;2022-12-05T00:20:06;36.55;;;21.67;;
26620;SDS011;14253;44.840;10.444;2022-12-05T00:22:34;39.08;;;23.65;;
26620;SDS011;14253;44.840;10.444;2022-12-05T00:25:02;35.75;;;22.60;;
26620;SDS011;14253;44.840;10.444;2022-12-05T00:27:32;40.17;;;23.15;;
26620;SDS011;14253;44.840;10.444;2022-12-05T00:29:58;32.80;;;21.02;;
26620;SDS011;14253;44.840;10.444;2022-12-05T00:32:24;35.03;;;22.00;;
26620;SDS011;14253;44.840;10.444;2022-12-05T00:34:52;33.17;;;20.45;;
26620;SDS011;14253;44.840;10.444;2022-12-05T00:37:18;33.25;;;20.67;;
26620;SDS011;14253;44.840;10.444;2022-12-05T00:39:43;36.35;;;22.00;;
26620;SDS011;14253;44.840;10.444;2022-12-05T00:42:09;38.95;;;23.70;;
26620;SDS011;14253;44.840;10.444;2022-12-05T00:44:35;43.90;;;24.15;;
26620;SDS011;14253;44.840;10.444;2022-12-05T00:47:01;37.95;;;22.65;;
26620;SDS011;14253;44.840;10.444;2022-12-05T00:49:27;34.75;;;22.17;;
26620;SDS011;14253;44.840;10.444;2022-12-05T00:51:53;36.83;;;22.13;;
26620;SDS011;14253;44.840;10.444;2022-12-05T00:54:19;36.88;;;22.00;;
26620;SDS011;14253;44.840;10.444;2022-12-05T00:56:45;39.25;;;21.92;;
26620;SDS011;14253;44.840;10.444;2022-12-05T00:59:15;38.33;;;22.40;;
26620;SDS011;14253;44.840;10.444;2022-12-05T01:01:43;36.00;;;22.00;;
26620;SDS011;14253;44.840;10.444;2022-12-05T01:04:12;34.90;;;21.67;;
26620;SDS011;14253;44.840;10.444;2022-12-05T01:06:40;36.05;;;21.30;;
26620;SDS011;14253;44.840;10.444;2022-12-05T01:09:06;36.28;;;22.67;;
26620;SDS011;14253;44.840;10.444;2022-12-05T01:11:33;37.13;;;22.58;;
26620;SDS011;14253;44.840;10.444;2022-12-05T01:14:00;35.63;;;21.40;;
26620;SDS011;14253;44.840;10.444;2022-12-05T01:16:27;39.97;;;22.23;;
26620;SDS011;14253;44.840;10.444;2022-12-05T01:18:55;38.92;;;21.88;;
26620;SDS011;14253;44.840;10.444;2022-12-05T01:21:23;36.60;;;21.38;;
26620;SDS011;14253;44.840;10.444;2022-12-05T01:23:49;42.83;;;23.42;;
26620;SDS011;14253;44.840;10.444;2022-12-05T01:26:15;42.55;;;23.48;;
26620;SDS011;14253;44.840;10.444;2022-12-05T01:28:43;41.35;;;22.80;;
26620;SDS011;14253;44.840;10.444;2022-12-05T01:31:21;45.85;;;25.23;;
26620;SDS011;14253;44.840;10.444;2022-12-05T01:33:53;43.25;;;23.63;;
26620;SDS011;14253;44.840;10.444;2022-12-05T01:36:21;40.08;;;23.30;;
26620;SDS011;14253;44.840;10.444;2022-12-05T01:38:47;45.13;;;24.88;;
26620;SDS011;14253;44.840;10.444;2022-12-05T01:41:19;43.72;;;23.88;;
26620;SDS011;14253;44.840;10.444;2022-12-05T01:43:53;42.42;;;23.15;;
26620;SDS011;14253;44.840;10.444;2022-12-05T01:46:35;43.47;;;24.38;;
26620;SDS011;14253;44.840;10.444;2022-12-05T01:51:35;49.10;;;24.65;;
26620;SDS011;14253;44.840;10.444;2022-12-05T01:54:03;45.95;;;24.05;;
26620;SDS011;14253;44.840;10.444;2022-12-05T01:56:31;47.97;;;24.67;;
26620;SDS011;14253;44.840;10.444;2022-12-05T01:58:59;47.88;;;25.45;;
26620;SDS011;14253;44.840;10.444;2022-12-05T02:01:27;53.25;;;26.95;;
26620;SDS011;14253;44.840;10.444;2022-12-05T02:03:54;50.63;;;26.02;;
26620;SDS011;14253;44.840;10.444;2022-12-05T02:06:23;50.15;;;24.92;;
26620;SDS011;14253;44.840;10.444;2022-12-05T02:08:50;49.45;;;26.83;;
26620;SDS011;14253;44.840;10.444;2022-12-05T02:11:17;48.13;;;25.90;;
26620;SDS011;14253;44.840;10.444;2022-12-05T02:22:14;48.28;;;24.15;;
26620;SDS011;14253;44.840;10.444;2022-12-05T02:25:13;49.67;;;24.30;;
26620;SDS011;14253;44.840;10.444;2022-12-05T02:30:44;48.65;;;24.58;;
26620;SDS011;14253;44.840;10.444;2022-12-05T02:38:38;48.20;;;24.30;;
26620;SDS011;14253;44.840;10.444;2022-12-05T02:46:28;49.60;;;25.02;;
26620;SDS011;14253;44.840;10.444;2022-12-05T02:48:57;52.47;;;24.17;;
26620;SDS011;14253;44.840;10.444;2022-12-05T02:51:28;51.13;;;25.02;;
26620;SDS011;14253;44.840;10.444;2022-12-05T02:53:57;46.13;;;24.20;;
26620;SDS011;14253;44.840;10.444;2022-12-05T02:56:27;47.03;;;22.38;;
26620;SDS011;14253;44.840;10.444;2022-12-05T02:58:55;47.42;;;22.40;;
26620;SDS011;14253;44.840;10.444;2022-12-05T03:01:22;44.85;;;23.38;;
26620;SDS011;14253;44.840;10.444;2022-12-05T03:03:51;48.47;;;23.70;;
26620;SDS011;14253;44.840;10.444;2022-12-05T03:06:24;46.03;;;21.98;;
26620;SDS011;14253;44.840;10.444;2022-12-05T03:09:00;51.63;;;22.77;;
26620;SDS011;14253;44.840;10.444;2022-12-05T03:11:33;49.92;;;23.83;;
26620;SDS011;14253;44.840;10.444;2022-12-05T03:14:24;46.92;;;23.45;;
26620;SDS011;14253;44.840;10.444;2022-12-05T03:16:57;45.08;;;22.42;;
26620;SDS011;14253;44.840;10.444;2022-12-05T03:20:14;49.22;;;22.33;;
26620;SDS011;14253;44.840;10.444;2022-12-05T03:24:57;51.35;;;24.27;;
26620;SDS011;14253;44.840;10.444;2022-12-05T03:32:40;50.67;;;24.67;;
26620;SDS011;14253;44.840;10.444;2022-12-05T03:35:22;52.55;;;23.67;;
26620;SDS011;14253;44.840;10.444;2022-12-05T03:37:56;48.85;;;23.45;;
26620;SDS011;14253;44.840;10.444;2022-12-05T03:40:34;57.50;;;25.35;;
26620;SDS011;14253;44.840;10.444;2022-12-05T03:46:05;54.45;;;23.48;;
26620;SDS011;14253;44.840;10.444;2022-12-05T03:51:38;65.55;;;25.08;;
26620;SDS011;14253;44.840;10.444;2022-12-05T03:54:11;81.97;;;24.42;;
26620;SDS011;14253;44.840;10.444;2022-12-05T03:57:34;68.05;;;24.38;;
26620;SDS011;14253;44.840;10.444;2022-12-05T03:59:47;53.78;;;23.33;;
26620;SDS011;14253;44.840;10.444;2022-12-05T04:02:28;87.88;;;25.17;;
26620;SDS011;14253;44.840;10.444;2022-12-05T04:07:46;55.78;;;25.00;;
26620;SDS011;14253;44.840;10.444;2022-12-05T04:10:16;69.75;;;24.95;;
26620;SDS011;14253;44.840;10.444;2022-12-05T04:12:46;71.40;;;25.80;;
26620;SDS011;14253;44.840;10.444;2022-12-05T04:15:17;76.82;;;25.35;;
26620;SDS011;14253;44.840;10.444;2022-12-05T04:18:14;83.18;;;25.10;;
26620;SDS011;14253;44.840;10.444;2022-12-05T04:20:43;69.05;;;25.38;;
26620;SDS011;14253;44.840;10.444;2022-12-05T04:23:29;62.92;;;26.63;;
26620;SDS011;14253;44.840;10.444;2022-12-05T04:28:29;63.33;;;28.55;;
26620;SDS011;14253;44.840;10.444;2022-12-05T04:41:36;58.33;;;25.52;;
26620;SDS011;14253;44.840;10.444;2022-12-05T04:44:26;55.28;;;25.30;;
26620;SDS011;14253;44.840;10.444;2022-12-05T04:46:58;48.72;;;24.40;;
26620;SDS011;14253;44.840;10.444;2022-12-05T04:49:27;59.25;;;26.45;;
26620;SDS011;14253;44.840;10.444;2022-12-05T04:51:56;51.47;;;25.48;;
26620;SDS011;14253;44.840;10.444;2022-12-05T04:54:45;49.33;;;23.83;;
26620;SDS011;14253;44.840;10.444;2022-12-05T04:57:33;61.00;;;26.88;;
26620;SDS011;14253;44.840;10.444;2022-12-05T05:00:05;66.80;;;26.27;;
26620;SDS011;14253;44.840;10.444;2022-12-05T05:02:34;55.67;;;23.60;;
26620;SDS011;14253;44.840;10.444;2022-12-05T05:05:06;55.47;;;26.58;;
26620;SDS011;14253;44.840;10.444;2022-12-05T05:07:46;54.63;;;24.52;;
26620;SDS011;14253;44.840;10.444;2022-12-05T05:10:18;55.63;;;25.08;;
26620;SDS011;14253;44.840;10.444;2022-12-05T05:13:05;53.60;;;25.77;;
26620;SDS011;14253;44.840;10.444;2022-12-05T05:15:31;52.83;;;23.75;;
26620;SDS011;14253;44.840;10.444;2022-12-05T05:17:57;52.10;;;23.63;;
26620;SDS011;14253;44.840;10.444;2022-12-05T05:20:23;45.17;;;22.85;;
26620;SDS011;14253;44.840;10.444;2022-12-05T05:22:53;54.08;;;24.60;;
26620;SDS011;14253;44.840;10.444;2022-12-05T05:25:20;54.03;;;23.10;;
26620;SDS011;14253;44.840;10.444;2022-12-05T05:27:47;47.30;;;23.65;;
26620;SDS011;14253;44.840;10.444;2022-12-05T05:30:15;47.72;;;24.17;;
26620;SDS011;14253;44.840;10.444;2022-12-05T05:32:42;50.72;;;24.23;;
26620;SDS011;14253;44.840;10.444;2022-12-05T05:35:08;54.65;;;25.00;;
26620;SDS011;14253;44.840;10.444;2022-12-05T05:37:34;54.15;;;24.75;;
26620;SDS011;14253;44.840;10.444;2022-12-05T05:40:00;52.80;;;24.77;;
26620;SDS011;14253;44.840;10.444;2022-12-05T05:42:26;57.38;;;24.55;;
26620;SDS011;14253;44.840;10.444;2022-12-05T05:44:52;51.63;;;23.50;;
26620;SDS011;14253;44.840;10.444;2022-12-05T05:47:17;52.97;;;24.52;;
26620;SDS011;14253;44.840;10.444;2022-12-05T05:49:43;45.92;;;23.52;;
26620;SDS011;14253;44.840;10.444;2022-12-05T05:52:09;54.38;;;23.90;;
26620;SDS011;14253;44.840;10.444;2022-12-05T05:54:35;57.22;;;23.92;;
26620;SDS011;14253;44.840;10.444;2022-12-05T05:57:01;50.38;;;23.25;;
26620;SDS011;14253;44.840;10.444;2022-12-05T05:59:27;57.60;;;25.75;;
26620;SDS011;14253;44.840;10.444;2022-12-05T06:01:53;55.45;;;25.10;;
26620;SDS011;14253;44.840;10.444;2022-12-05T06:04:19;53.53;;;24.52;;
26620;SDS011;14253;44.840;10.444;2022-12-05T06:06:44;55.92;;;25.60;;
26620;SDS011;14253;44.840;10.444;2022-12-05T06:09:10;51.20;;;24.25;;
26620;SDS011;14253;44.840;10.444;2022-12-05T06:11:36;47.50;;;22.50;;
26620;SDS011;14253;44.840;10.444;2022-12-05T06:14:02;53.38;;;24.50;;
26620;SDS011;14253;44.840;10.444;2022-12-05T06:16:29;55.33;;;22.65;;
26620;SDS011;14253;44.840;10.444;2022-12-05T06:18:56;66.40;;;25.42;;
26620;SDS011;14253;44.840;10.444;2022-12-05T06:21:22;57.72;;;24.92;;
26620;SDS011;14253;44.840;10.444;2022-12-05T06:23:49;54.22;;;25.50;;
26620;SDS011;14253;44.840;10.444;2022-12-05T06:26:16;62.28;;;25.15;;
26620;SDS011;14253;44.840;10.444;2022-12-05T06:28:43;65.13;;;26.25;;
26620;SDS011;14253;44.840;10.444;2022-12-05T06:31:14;52.30;;;23.50;;
26620;SDS011;14253;44.840;10.444;2022-12-05T06:33:42;60.33;;;25.38;;
26620;SDS011;14253;44.840;10.444;2022-12-05T06:36:13;62.25;;;25.85;;
26620;SDS011;14253;44.840;10.444;2022-12-05T06:38:41;62.13;;;25.88;;
26620;SDS011;14253;44.840;10.444;2022-12-05T06:41:07;54.70;;;23.27;;
26620;SDS011;14253;44.840;10.444;2022-12-05T06:43:37;52.00;;;22.60;;
26620;SDS011;14253;44.840;10.444;2022-12-05T06:46:04;67.43;;;27.42;;
26620;SDS011;14253;44.840;10.444;2022-12-05T06:48:31;67.80;;;26.85;;
26620;SDS011;14253;44.840;10.444;2022-12-05T06:50:57;59.97;;;26.33;;
26620;SDS011;14253;44.840;10.444;2022-12-05T06:53:22;58.90;;;25.08;;
26620;SDS011;14253;44.840;10.444;2022-12-05T06:55:55;55.67;;;24.83;;
26620;SDS011;14253;44.840;10.444;2022-12-05T06:58:22;52.05;;;22.88;;
26620;SDS011;14253;44.840;10.444;2022-12-05T07:00:49;53.20;;;24.05;;
26620;SDS011;14253;44.840;10.444;2022-12-05T07:03:34;62.97;;;28.77;;
26620;SDS011;14253;44.840;10.444;2022-12-05T07:06:00;72.43;;;28.00;;
26620;SDS011;14253;44.840;10.444;2022-12-05T07:08:28;62.97;;;28.05;;
26620;SDS011;14253;44.840;10.444;2022-12-05T07:10:54;60.75;;;28.65;;
26620;SDS011;14253;44.840;10.444;2022-12-05T07:13:20;61.28;;;26.77;;
26620;SDS011;14253;44.840;10.444;2022-12-05T07:15:46;60.38;;;26.27;;
26620;SDS011;14253;44.840;10.444;2022-12-05T07:18:13;64.15;;;25.65;;
26620;SDS011;14253;44.840;10.444;2022-12-05T07:20:41;58.63;;;26.27;;
26620;SDS011;14253;44.840;10.444;2022-12-05T07:23:07;57.85;;;26.45;;
26620;SDS011;14253;44.840;10.444;2022-12-05T07:25:37;64.80;;;27.40;;
26620;SDS011;14253;44.840;10.444;2022-12-05T07:28:04;56.40;;;27.55;;
26620;SDS011;14253;44.840;10.444;2022-12-05T07:30:30;55.00;;;24.75;;
26620;SDS011;14253;44.840;10.444;2022-12-05T07:32:56;53.10;;;25.73;;
26620;SDS011;14253;44.840;10.444;2022-12-05T07:35:22;54.95;;;24.77;;
26620;SDS011;14253;44.840;10.444;2022-12-05T07:37:48;73.45;;;25.50;;
26620;SDS011;14253;44.840;10.444;2022-12-05T07:40:14;57.05;;;27.17;;
26620;SDS011;14253;44.840;10.444;2022-12-05T07:42:40;62.10;;;25.80;;
26620;SDS011;14253;44.840;10.444;2022-12-05T07:45:06;67.50;;;26.10;;
26620;SDS011;14253;44.840;10.444;2022-12-05T07:47:32;62.08;;;27.75;;
26620;SDS011;14253;44.840;10.444;2022-12-05T07:49:58;74.82;;;26.38;;
26620;SDS011;14253;44.840;10.444;2022-12-05T07:52:24;57.88;;;24.65;;
26620;SDS011;14253;44.840;10.444;2022-12-05T07:54:54;57.78;;;25.27;;
26620;SDS011;14253;44.840;10.444;2022-12-05T07:57:20;63.08;;;26.23;;
26620;SDS011;14253;44.840;10.444;2022-12-05T07:59:46;61.88;;;25.13;;
26620;SDS011;14253;44.840;10.444;2022-12-05T08:02:12;57.55;;;24.77;;
26620;SDS011;14253;44.840;10.444;2022-12-05T08:04:39;71.82;;;27.08;;
26620;SDS011;14253;44.840;10.444;2022-12-05T08:07:10;72.97;;;26.08;;
26620;SDS011;14253;44.840;10.444;2022-12-05T08:09:35;62.22;;;24.90;;
26620;SDS011;14253;44.840;10.444;2022-12-05T08:12:02;57.00;;;22.35;;
26620;SDS011;14253;44.840;10.444;2022-12-05T08:14:28;56.95;;;22.52;;
26620;SDS011;14253;44.840;10.444;2022-12-05T08:16:54;52.80;;;21.90;;
26620;SDS011;14253;44.840;10.444;2022-12-05T08:19:20;55.13;;;19.90;;
26620;SDS011;14253;44.840;10.444;2022-12-05T08:21:46;57.75;;;20.67;;
26620;SDS011;14253;44.840;10.444;2022-12-05T08:24:11;55.33;;;21.23;;
26620;SDS011;14253;44.840;10.444;2022-12-05T08:26:38;58.13;;;22.52;;
26620;SDS011;14253;44.840;10.444;2022-12-05T08:29:08;55.63;;;19.52;;
26620;SDS011;14253;44.840;10.444;2022-12-05T08:31:44;45.85;;;18.88;;
26620;SDS011;14253;44.840;10.444;2022-12-05T08:34:12;50.97;;;18.10;;
26620;SDS011;14253;44.840;10.444;2022-12-05T08:36:39;46.42;;;18.15;;
26620;SDS011;14253;44.840;10.444;2022-12-05T08:39:06;45.70;;;19.38;;
26620;SDS011;14253;44.840;10.444;2022-12-05T08:41:36;47.13;;;19.40;;
26620;SDS011;14253;44.840;10.444;2022-12-05T08:44:03;61.08;;;20.70;;
26620;SDS011;14253;44.840;10.444;2022-12-05T08:46:31;50.70;;;20.00;;
26620;SDS011;14253;44.840;10.444;2022-12-05T08:48:58;44.38;;;17.65;;
26620;SDS011;14253;44.840;10.444;2022-12-05T08:51:24;46.80;;;18.10;;
26620;SDS011;14253;44.840;10.444;2022-12-05T08:53:50;47.03;;;19.15;;
26620;SDS011;14253;44.840;10.444;2022-12-05T08:56:16;44.65;;;18.25;;
26620;SDS011;14253;44.840;10.444;2022-12-05T08:58:43;43.78;;;17.90;;
26620;SDS011;14253;44.840;10.444;2022-12-05T09:01:10;40.92;;;16.70;;
26620;SDS011;14253;44.840;10.444;2022-12-05T09:03:38;36.42;;;16.45;;
26620;SDS011;14253;44.840;10.444;2022-12-05T09:06:09;47.00;;;16.55;;
26620;SDS011;14253;44.840;10.444;2022-12-05T09:08:41;44.25;;;18.42;;
26620;SDS011;14253;44.840;10.444;2022-12-05T09:11:10;43.08;;;18.50;;
26620;SDS011;14253;44.840;10.444;2022-12-05T09:13:38;43.65;;;17.17;;
26620;SDS011;14253;44.840;10.444;2022-12-05T09:16:11;43.20;;;18.23;;
26620;SDS011;14253;44.840;10.444;2022-12-05T09:18:57;48.85;;;21.50;;
26620;SDS011;14253;44.840;10.444;2022-12-05T09:21:25;50.33;;;19.90;;
26620;SDS011;14253;44.840;10.444;2022-12-05T09:23:53;50.53;;;21.52;;
26620;SDS011;14253;44.840;10.444;2022-12-05T09:26:22;44.40;;;18.52;;
26620;SDS011;14253;44.840;10.444;2022-12-05T09:28:49;45.13;;;19.38;;
26620;SDS011;14253;44.840;10.444;2022-12-05T09:31:17;43.20;;;18.92;;
26620;SDS011;14253;44.840;10.444;2022-12-05T09:33:45;38.72;;;17.95;;
26620;SDS011;14253;44.840;10.444;2022-12-05T09:38:40;49.03;;;19.30;;
26620;SDS011;14253;44.840;10.444;2022-12-05T09:41:10;57.47;;;20.05;;
26620;SDS011;14253;44.840;10.444;2022-12-05T09:43:48;48.20;;;20.55;;
26620;SDS011;14253;44.840;10.444;2022-12-05T09:49:16;42.25;;;18.15;;
26620;SDS011;14253;44.840;10.444;2022-12-05T09:51:43;41.45;;;18.65;;
26620;SDS011;14253;44.840;10.444;2022-12-05T09:54:11;46.75;;;19.48;;
26620;SDS011;14253;44.840;10.444;2022-12-05T09:56:38;45.58;;;20.75;;
26620;SDS011;14253;44.840;10.444;2022-12-05T09:59:09;47.90;;;19.38;;
26620;SDS011;14253;44.840;10.444;2022-12-05T10:04:52;43.33;;;18.75;;
26620;SDS011;14253;44.840;10.444;2022-12-05T10:07:32;52.45;;;21.10;;
26620;SDS011;14253;44.840;10.444;2022-12-05T10:26:36;52.60;;;20.83;;
26620;SDS011;14253;44.840;10.444;2022-12-05T10:29:21;52.90;;;18.92;;
26620;SDS011;14253;44.840;10.444;2022-12-05T10:31:53;47.90;;;20.27;;
26620;SDS011;14253;44.840;10.444;2022-12-05T10:37:16;45.40;;;19.10;;
26620;SDS011;14253;44.840;10.444;2022-12-05T10:39:45;52.45;;;21.08;;
26620;SDS011;14253;44.840;10.444;2022-12-05T10:42:22;52.22;;;19.35;;
26620;SDS011;14253;44.840;10.444;2022-12-05T10:44:57;48.08;;;19.02;;
26620;SDS011;14253;44.840;10.444;2022-12-05T10:47:27;47.22;;;20.10;;
26620;SDS011;14253;44.840;10.444;2022-12-05T10:53:49;42.33;;;18.30;;
26620;SDS011;14253;44.840;10.444;2022-12-05T10:56:36;46.05;;;19.17;;
26620;SDS011;14253;44.840;10.444;2022-12-05T10:59:03;43.67;;;18.58;;
26620;SDS011;14253;44.840;10.444;2022-12-05T11:01:31;55.40;;;24.30;;
26620;SDS011;14253;44.840;10.444;2022-12-05T11:03:58;53.28;;;19.88;;
26620;SDS011;14253;44.840;10.444;2022-12-05T11:06:28;45.05;;;17.75;;
26620;SDS011;14253;44.840;10.444;2022-12-05T11:08:56;43.83;;;19.17;;
26620;SDS011;14253;44.840;10.444;2022-12-05T11:11:37;46.92;;;18.35;;
26620;SDS011;14253;44.840;10.444;2022-12-05T11:14:05;46.35;;;19.63;;
26620;SDS011;14253;44.840;10.444;2022-12-05T11:16:50;46.13;;;19.15;;
26620;SDS011;14253;44.840;10.444;2022-12-05T11:21:49;45.33;;;19.83;;
26620;SDS011;14253;44.840;10.444;2022-12-05T11:24:20;42.70;;;19.60;;
26620;SDS011;14253;44.840;10.444;2022-12-05T11:26:49;58.92;;;22.00;;
26620;SDS011;14253;44.840;10.444;2022-12-05T11:29:35;56.08;;;19.35;;
26620;SDS011;14253;44.840;10.444;2022-12-05T11:32:04;48.05;;;19.27;;
26620;SDS011;14253;44.840;10.444;2022-12-05T11:34:41;48.85;;;20.60;;
26620;SDS011;14253;44.840;10.444;2022-12-05T11:37:17;54.05;;;22.90;;
26620;SDS011;14253;44.840;10.444;2022-12-05T11:39:48;53.88;;;20.77;;
26620;SDS011;14253;44.840;10.444;2022-12-05T11:42:18;46.63;;;20.55;;
26620;SDS011;14253;44.840;10.444;2022-12-05T11:50:18;52.88;;;20.55;;
26620;SDS011;14253;44.840;10.444;2022-12-05T11:53:09;51.55;;;21.45;;
26620;SDS011;14253;44.840;10.444;2022-12-05T11:56:13;51.33;;;19.80;;
26620;SDS011;14253;44.840;10.444;2022-12-05T11:58:45;46.47;;;20.10;;
26620;SDS011;14253;44.840;10.444;2022-12-05T12:07:44;48.60;;;19.70;;
26620;SDS011;14253;44.840;10.444;2022-12-05T12:22:33;47.10;;;20.38;;
26620;SDS011;14253;44.840;10.444;2022-12-05T12:24:45;53.67;;;22.70;;
26620;SDS011;14253;44.840;10.444;2022-12-05T12:30:29;49.97;;;19.83;;
26620;SDS011;14253;44.840;10.444;2022-12-05T12:33:38;46.58;;;19.23;;
26620;SDS011;14253;44.840;10.444;2022-12-05T12:38:57;42.17;;;18.08;;
26620;SDS011;14253;44.840;10.444;2022-12-05T12:50:33;44.05;;;19.90;;
26620;SDS011;14253;44.840;10.444;2022-12-05T13:04:07;48.78;;;19.13;;
26620;SDS011;14253;44.840;10.444;2022-12-05T13:06:49;52.80;;;20.73;;
26620;SDS011;14253;44.840;10.444;2022-12-05T13:09:21;47.20;;;20.35;;
26620;SDS011;14253;44.840;10.444;2022-12-05T13:14:58;45.25;;;19.50;;
26620;SDS011;14253;44.840;10.444;2022-12-05T13:17:29;55.15;;;21.38;;
26620;SDS011;14253;44.840;10.444;2022-12-05T13:19:57;55.17;;;22.05;;
26620;SDS011;14253;44.840;10.444;2022-12-05T13:22:24;42.90;;;17.67;;
26620;SDS011;14253;44.840;10.444;2022-12-05T13:24:53;35.85;;;15.95;;
26620;SDS011;14253;44.840;10.444;2022-12-05T13:27:25;40.22;;;17.02;;
26620;SDS011;14253;44.840;10.444;2022-12-05T13:29:53;34.60;;;15.70;;
26620;SDS011;14253;44.840;10.444;2022-12-05T13:32:28;39.70;;;17.15;;
26620;SDS011;14253;44.840;10.444;2022-12-05T13:34:55;43.58;;;17.50;;
26620;SDS011;14253;44.840;10.444;2022-12-05T13:37:32;43.65;;;18.15;;
26620;SDS011;14253;44.840;10.444;2022-12-05T13:40:30;46.90;;;18.88;;
26620;SDS011;14253;44.840;10.444;2022-12-05T13:43:20;44.95;;;18.70;;
26620;SDS011;14253;44.840;10.444;2022-12-05T13:49:53;44.13;;;18.50;;
26620;SDS011;14253;44.840;10.444;2022-12-05T13:52:41;44.08;;;18.08;;
26620;SDS011;14253;44.840;10.444;2022-12-05T13:57:56;47.55;;;20.08;;
26620;SDS011;14253;44.840;10.444;2022-12-05T14:00:28;45.00;;;18.70;;
26620;SDS011;14253;44.840;10.444;2022-12-05T14:02:57;45.97;;;21.67;;
26620;SDS011;14253;44.840;10.444;2022-12-05T14:05:53;45.65;;;20.40;;
26620;SDS011;14253;44.840;10.444;2022-12-05T14:16:59;46.33;;;19.92;;
26620;SDS011;14253;44.840;10.444;2022-12-05T14:18:57;42.65;;;19.92;;
26620;SDS011;14253;44.840;10.444;2022-12-05T14:34:15;39.70;;;20.17;;
26620;SDS011;14253;44.840;10.444;2022-12-05T14:36:57;45.75;;;20.15;;
26620;SDS011;14253;44.840;10.444;2022-12-05T14:44:53;41.28;;;19.90;;
26620;SDS011;14253;44.840;10.444;2022-12-05T14:47:22;39.10;;;19.35;;
26620;SDS011;14253;44.840;10.444;2022-12-05T14:49:54;38.88;;;17.48;;
26620;SDS011;14253;44.840;10.444;2022-12-05T14:52:27;35.22;;;17.10;;
26620;SDS011;14253;44.840;10.444;2022-12-05T14:55:02;38.55;;;16.85;;
26620;SDS011;14253;44.840;10.444;2022-12-05T14:57:35;39.83;;;18.67;;
26620;SDS011;14253;44.840;10.444;2022-12-05T15:00:16;35.08;;;19.40;;
26620;SDS011;14253;44.840;10.444;2022-12-05T15:02:46;40.42;;;18.67;;
26620;SDS011;14253;44.840;10.444;2022-12-05T15:05:23;39.03;;;19.83;;
26620;SDS011;14253;44.840;10.444;2022-12-05T15:07:53;41.25;;;17.75;;
26620;SDS011;14253;44.840;10.444;2022-12-05T15:10:39;39.83;;;17.88;;
26620;SDS011;14253;44.840;10.444;2022-12-05T15:13:11;39.80;;;17.10;;
26620;SDS011;14253;44.840;10.444;2022-12-05T15:15:44;37.97;;;17.80;;
26620;SDS011;14253;44.840;10.444;2022-12-05T15:18:20;39.90;;;19.10;;
26620;SDS011;14253;44.840;10.444;2022-12-05T15:26:13;35.65;;;16.85;;
26620;SDS011;14253;44.840;10.444;2022-12-05T15:31:31;33.92;;;17.00;;
26620;SDS011;14253;44.840;10.444;2022-12-05T15:34:40;36.00;;;17.08;;
26620;SDS011;14253;44.840;10.444;2022-12-05T15:39:53;32.65;;;17.27;;
26620;SDS011;14253;44.840;10.444;2022-12-05T15:42:28;29.58;;;14.25;;
26620;SDS011;14253;44.840;10.444;2022-12-05T15:47:40;26.52;;;14.05;;
26620;SDS011;14253;44.840;10.444;2022-12-05T15:50:50;35.08;;;14.68;;
26620;SDS011;14253;44.840;10.444;2022-12-05T15:53:04;30.10;;;15.18;;
26620;SDS011;14253;44.840;10.444;2022-12-05T15:55:35;27.05;;;13.77;;
26620;SDS011;14253;44.840;10.444;2022-12-05T15:58:10;30.52;;;13.77;;
26620;SDS011;14253;44.840;10.444;2022-12-05T16:00:47;25.73;;;13.52;;
26620;SDS011;14253;44.840;10.444;2022-12-05T16:05:54;29.65;;;13.90;;
26620;SDS011;14253;44.840;10.444;2022-12-05T16:08:25;26.95;;;14.25;;
26620;SDS011;14253;44.840;10.444;2022-12-05T16:11:06;24.23;;;13.98;;
26620;SDS011;14253;44.840;10.444;2022-12-05T16:13:33;30.27;;;14.00;;
26620;SDS011;14253;44.840;10.444;2022-12-05T16:15:59;25.13;;;13.57;;
26620;SDS011;14253;44.840;10.444;2022-12-05T16:18:29;26.35;;;15.05;;
26620;SDS011;14253;44.840;10.444;2022-12-05T16:20:56;27.52;;;13.43;;
26620;SDS011;14253;44.840;10.444;2022-12-05T16:26:08;27.58;;;14.57;;
26620;SDS011;14253;44.840;10.444;2022-12-05T16:28:42;27.17;;;15.15;;
26620;SDS011;14253;44.840;10.444;2022-12-05T16:31:25;28.98;;;14.80;;
26620;SDS011;14253;44.840;10.444;2022-12-05T16:34:07;29.80;;;14.98;;
26620;SDS011;14253;44.840;10.444;2022-12-05T16:36:46;28.38;;;14.60;;
26620;SDS011;14253;44.840;10.444;2022-12-05T16:39:14;30.23;;;14.45;;
26620;SDS011;14253;44.840;10.444;2022-12-05T16:41:42;26.77;;;13.20;;
26620;SDS011;14253;44.840;10.444;2022-12-05T16:46:56;29.17;;;14.65;;
26620;SDS011;14253;44.840;10.444;2022-12-05T16:51:58;32.10;;;15.57;;
26620;SDS011;14253;44.840;10.444;2022-12-05T16:54:26;35.47;;;15.05;;
26620;SDS011;14253;44.840;10.444;2022-12-05T16:56:53;35.97;;;16.70;;
26620;SDS011;14253;44.840;10.444;2022-12-05T16:59:24;36.53;;;17.58;;
26620;SDS011;14253;44.840;10.444;2022-12-05T17:01:56;39.58;;;16.50;;
26620;SDS011;14253;44.840;10.444;2022-12-05T17:04:22;38.65;;;17.58;;
26620;SDS011;14253;44.840;10.444;2022-12-05T17:06:48;38.40;;;16.52;;
26620;SDS011;14253;44.840;10.444;2022-12-05T17:09:14;35.15;;;14.80;;
26620;SDS011;14253;44.840;10.444;2022-12-05T17:11:41;38.72;;;16.58;;
26620;SDS011;14253;44.840;10.444;2022-12-05T17:14:12;41.85;;;18.30;;
26620;SDS011;14253;44.840;10.444;2022-12-05T17:16:40;39.45;;;16.58;;
26620;SDS011;14253;44.840;10.444;2022-12-05T17:19:08;39.53;;;16.80;;
26620;SDS011;14253;44.840;10.444;2022-12-05T17:21:35;33.35;;;17.20;;
26620;SDS011;14253;44.840;10.444;2022-12-05T17:24:03;34.15;;;14.38;;
26620;SDS011;14253;44.840;10.444;2022-12-05T17:26:29;37.15;;;16.48;;
26620;SDS011;14253;44.840;10.444;2022-12-05T17:28:55;36.33;;;16.48;;
26620;SDS011;14253;44.840;10.444;2022-12-05T17:31:22;43.42;;;17.40;;
26620;SDS011;14253;44.840;10.444;2022-12-05T17:33:50;40.83;;;17.33;;
26620;SDS011;14253;44.840;10.444;2022-12-05T17:36:17;43.92;;;17.05;;
26620;SDS011;14253;44.840;10.444;2022-12-05T17:38:47;38.28;;;16.38;;
26620;SDS011;14253;44.840;10.444;2022-12-05T17:41:18;38.90;;;18.00;;
26620;SDS011;14253;44.840;10.444;2022-12-05T17:43:49;44.20;;;17.67;;
26620;SDS011;14253;44.840;10.444;2022-12-05T17:46:17;34.58;;;14.68;;
26620;SDS011;14253;44.840;10.444;2022-12-05T17:48:45;38.72;;;17.65;;